createdAt,value
2023-04-28T00:00:27.677Z,12.5241
2023-04-28T00:01:27.612Z,12.4967
2023-04-28T00:02:27.632Z,12.4687
2023-04-28T00:03:27.806Z,12.4096
2023-04-28T00:04:28.420Z,12.3998
2023-04-28T00:05:29.175Z,12.4057
2023-04-28T00:06:29.289Z,12.4582
2023-04-28T00:07:29.303Z,12.4860
2023-04-28T00:08:29.322Z,12.5272
2023-04-28T00:09:29.268Z,12.5307
2023-04-28T00:10:29.216Z,12.6187
2023-04-28T00:11:29.212Z,12.6211
2023-04-28T00:12:29.182Z,12.6707
2023-04-28T00:13:29.151Z,12.7446
2023-04-28T00:14:29.181Z,12.7570
2023-04-28T00:15:29.196Z,12.7302
2023-04-28T00:16:29.244Z,12.7548
2023-04-28T00:17:29.286Z,12.7724
2023-04-28T00:18:29.365Z,12.7236
2023-04-28T00:19:29.352Z,12.7211
2023-04-28T00:20:29.328Z,12.7284
2023-04-28T00:21:29.297Z,12.6863
2023-04-28T00:22:29.246Z,12.6616
2023-04-28T00:23:29.215Z,12.6350
2023-04-28T00:24:29.260Z,12.6271
2023-04-28T00:25:29.274Z,12.6465
2023-04-28T00:26:29.294Z,12.6541
2023-04-28T00:27:29.262Z,12.6413
2023-04-28T00:29:29.831Z,12.6276
2023-04-28T00:30:29.744Z,12.6267
2023-04-28T00:31:29.733Z,12.6222
2023-04-28T00:32:29.734Z,12.6187
2023-04-28T00:33:29.694Z,12.5916
2023-04-28T00:34:29.647Z,12.6114
2023-04-28T00:35:29.612Z,12.6351
2023-04-28T00:36:29.707Z,12.6495
2023-04-28T00:37:29.738Z,12.6569
2023-04-28T00:38:29.698Z,12.6620
2023-04-28T00:39:29.645Z,12.6498
2023-04-28T00:40:29.575Z,12.6435
2023-04-28T00:41:29.574Z,12.6344
2023-04-28T00:42:29.556Z,12.6310
2023-04-28T00:43:29.507Z,12.5577
2023-04-28T00:44:29.493Z,12.5476
2023-04-28T00:45:29.440Z,12.5692
2023-04-28T00:46:29.560Z,12.6047
2023-04-28T00:47:29.571Z,12.5320
2023-04-28T00:48:29.551Z,12.5029
2023-04-28T00:49:29.581Z,12.4764
2023-04-28T00:50:29.520Z,12.4769
2023-04-28T00:51:29.528Z,12.5611
2023-04-28T00:52:29.534Z,12.5692
2023-04-28T00:53:29.624Z,12.5452
2023-04-28T00:54:29.656Z,12.5206
2023-04-28T00:55:29.635Z,12.5234
2023-04-28T00:56:29.741Z,12.5490
2023-04-28T00:57:29.734Z,12.5649
2023-04-28T00:58:29.664Z,12.5728
2023-04-28T00:59:29.686Z,12.5586
2023-04-28T01:00:29.619Z,12.5442
2023-04-28T01:01:29.718Z,12.5593
2023-04-28T01:02:29.742Z,12.5582
2023-04-28T01:03:30.164Z,12.5478
2023-04-28T01:04:30.470Z,12.5382
2023-04-28T01:05:30.937Z,12.5654
2023-04-28T01:06:31.033Z,12.5709
2023-04-28T01:07:31.030Z,12.5470
2023-04-28T01:08:31.021Z,12.5520
2023-04-28T01:09:31.044Z,12.5815
2023-04-28T01:10:31.131Z,12.5892
2023-04-28T01:11:31.170Z,12.6026
2023-04-28T01:12:31.175Z,12.6305
2023-04-28T01:13:31.186Z,12.6104
2023-04-28T01:14:31.444Z,12.5842
2023-04-28T01:15:31.454Z,12.5683
2023-04-28T01:16:31.696Z,12.5663
2023-04-28T01:17:31.674Z,12.5928
2023-04-28T01:18:31.691Z,12.5934
2023-04-28T01:19:31.709Z,12.5375
2023-04-28T01:20:31.704Z,12.6085
2023-04-28T01:21:31.687Z,12.6471
2023-04-28T01:22:31.787Z,12.6587
2023-04-28T01:23:31.872Z,12.6396
2023-04-28T01:24:31.824Z,12.6421
2023-04-28T01:25:31.756Z,12.6152
2023-04-28T01:26:31.830Z,12.5668
2023-04-28T01:27:31.810Z,12.5487
2023-04-28T01:28:31.808Z,12.5274
2023-04-28T01:29:31.858Z,12.4979
2023-04-28T01:30:31.923Z,12.4540
2023-04-28T01:31:32.009Z,12.3974
2023-04-28T01:32:32.034Z,12.3392
2023-04-28T01:33:32.236Z,12.3079
2023-04-28T01:34:32.189Z,12.2856
2023-04-28T01:35:32.187Z,12.2246
2023-04-28T01:36:32.205Z,12.1320
2023-04-28T01:37:32.228Z,12.0894
2023-04-28T01:38:32.194Z,12.0591
2023-04-28T01:39:32.240Z,12.0829
2023-04-28T01:40:32.304Z,12.1123
2023-04-28T01:41:32.334Z,12.1289
2023-04-28T01:42:32.311Z,12.1765
2023-04-28T01:43:32.327Z,12.2218
2023-04-28T01:44:32.312Z,12.2413
2023-04-28T01:45:32.297Z,12.2926
2023-04-28T01:46:32.288Z,12.3040
2023-04-28T01:47:32.534Z,12.2903
2023-04-28T01:48:32.569Z,12.3164
2023-04-28T01:49:32.580Z,12.3178
2023-04-28T01:50:32.559Z,12.3284
2023-04-28T01:51:32.556Z,12.2125
2023-04-28T01:52:32.630Z,12.0711
2023-04-28T01:53:32.674Z,12.0484
2023-04-28T01:54:32.750Z,12.0087
2023-04-28T01:55:32.743Z,11.9853
2023-04-28T01:56:32.769Z,11.9615
2023-04-28T01:57:32.739Z,11.9179
2023-04-28T01:58:32.792Z,11.8876
2023-04-28T01:59:32.801Z,11.8565
2023-04-28T02:00:33.082Z,11.8136
2023-04-28T02:01:33.177Z,11.7888
2023-04-28T02:02:33.336Z,11.7623
2023-04-28T02:03:33.750Z,11.7701
2023-04-28T02:04:34.185Z,11.8042
2023-04-28T02:05:34.366Z,11.8384
2023-04-28T02:06:34.361Z,11.8457
2023-04-28T02:07:34.404Z,11.7332
2023-04-28T02:08:34.473Z,11.6595
2023-04-28T02:09:34.481Z,11.6610
2023-04-28T02:10:34.481Z,11.6722
2023-04-28T02:11:34.532Z,11.6791
2023-04-28T02:12:34.643Z,11.6666
2023-04-28T02:13:34.643Z,11.6896
2023-04-28T02:14:34.682Z,11.6839
2023-04-28T02:15:34.796Z,11.6888
2023-04-28T02:16:35.009Z,11.6979
2023-04-28T02:17:35.111Z,11.7120
2023-04-28T02:18:35.022Z,11.7807
2023-04-28T02:19:35.061Z,11.8891
2023-04-28T02:20:35.290Z,12.0032
2023-04-28T02:21:35.346Z,12.0783
2023-04-28T02:22:35.381Z,12.1022
2023-04-28T02:23:35.381Z,12.1118
2023-04-28T02:24:35.360Z,12.2329
2023-04-28T02:25:35.473Z,12.2825
2023-04-28T02:26:35.473Z,12.2800
2023-04-28T02:27:35.505Z,12.2716
2023-04-28T02:28:35.558Z,12.2154
2023-04-28T02:29:35.571Z,12.1344
2023-04-28T02:30:35.635Z,12.1172
2023-04-28T02:31:35.677Z,12.0739
2023-04-28T02:32:35.807Z,12.0473
2023-04-28T02:33:35.822Z,12.0330
2023-04-28T02:34:35.911Z,12.0299
2023-04-28T02:35:35.870Z,12.0244
2023-04-28T02:36:36.085Z,11.9983
2023-04-28T02:37:36.109Z,11.9708
2023-04-28T02:38:36.178Z,11.9664
2023-04-28T02:39:36.190Z,11.9561
2023-04-28T02:40:36.275Z,11.9502
2023-04-28T02:41:36.271Z,11.9431
2023-04-28T02:42:36.238Z,11.9732
2023-04-28T02:43:36.250Z,12.0330
2023-04-28T02:44:36.220Z,12.0799
2023-04-28T02:45:36.249Z,12.0782
2023-04-28T02:46:37.510Z,12.0883
2023-04-28T02:47:37.594Z,12.0679
2023-04-28T02:48:37.650Z,12.0223
2023-04-28T02:49:37.679Z,11.9806
2023-04-28T02:50:37.726Z,11.9610
2023-04-28T02:51:37.684Z,11.9199
2023-04-28T02:52:37.690Z,11.8917
2023-04-28T02:53:37.712Z,11.8557
2023-04-28T02:54:37.670Z,11.7812
2023-04-28T02:55:37.666Z,11.7541
2023-04-28T02:56:37.654Z,11.7527
2023-04-28T02:57:37.728Z,11.6911
2023-04-28T02:58:37.723Z,11.5858
2023-04-28T02:59:37.707Z,11.5072
2023-04-28T03:00:37.721Z,11.4545
2023-04-28T03:01:37.846Z,11.4444
2023-04-28T03:02:38.088Z,11.4314
2023-04-28T03:03:38.394Z,11.4203
2023-04-28T03:04:38.538Z,11.4117
2023-04-28T03:05:38.656Z,11.4462
2023-04-28T03:06:38.712Z,11.4549
2023-04-28T03:07:38.841Z,11.4759
2023-04-28T03:08:38.913Z,11.4686
2023-04-28T03:09:40.075Z,11.4663
2023-04-28T03:10:39.844Z,11.4494
2023-04-28T03:11:39.821Z,11.4584
2023-04-28T03:12:39.892Z,11.4376
2023-04-28T03:13:39.900Z,11.4214
2023-04-28T03:14:39.973Z,11.3632
2023-04-28T03:15:40.038Z,11.3210
2023-04-28T03:16:40.201Z,11.2601
2023-04-28T03:17:40.327Z,11.1974
2023-04-28T03:18:40.443Z,11.0726
2023-04-28T03:19:40.575Z,11.0238
2023-04-28T03:20:40.655Z,10.9939
2023-04-28T03:21:40.791Z,10.9609
2023-04-28T03:22:40.983Z,10.9529
2023-04-28T03:23:41.182Z,10.9000
2023-04-28T03:24:41.291Z,10.8699
2023-04-28T03:25:41.469Z,10.8319
2023-04-28T03:26:41.687Z,10.8370
2023-04-28T03:27:41.970Z,10.8790
2023-04-28T03:28:42.090Z,10.8857
2023-04-28T03:29:42.303Z,10.8989
2023-04-28T03:30:42.536Z,10.9040
2023-04-28T03:31:42.767Z,10.9090
2023-04-28T03:32:43.045Z,10.9507
2023-04-28T03:33:43.284Z,10.9530
2023-04-28T03:34:43.579Z,10.9498
2023-04-28T03:35:43.685Z,10.9176
2023-04-28T03:36:44.024Z,10.9208
2023-04-28T03:37:44.145Z,10.9187
2023-04-28T03:38:44.462Z,10.9370
2023-04-28T03:39:44.639Z,10.9580
2023-04-28T03:40:44.728Z,10.9663
2023-04-28T03:41:44.867Z,10.9852
2023-04-28T03:42:45.034Z,10.9457
2023-04-28T03:43:45.146Z,10.9487
2023-04-28T03:44:45.222Z,10.9044
2023-04-28T03:45:45.355Z,10.9192
2023-04-28T03:46:46.485Z,10.9533
2023-04-28T03:47:46.699Z,10.9318
2023-04-28T03:48:46.807Z,10.9209
2023-04-28T03:49:46.906Z,10.8670
2023-04-28T03:50:47.056Z,10.8605
2023-04-28T03:51:47.245Z,10.8074
2023-04-28T03:52:47.499Z,10.8000
2023-04-28T03:53:47.749Z,10.7775
2023-04-28T03:54:47.840Z,10.7795
2023-04-28T03:55:48.110Z,10.8016
2023-04-28T03:56:48.378Z,10.8057
2023-04-28T03:57:48.542Z,10.7896
2023-04-28T03:58:48.803Z,10.7950
2023-04-28T03:59:49.027Z,10.7957
2023-04-28T04:00:49.153Z,10.7956
2023-04-28T04:01:49.291Z,10.8315
2023-04-28T04:02:49.708Z,10.8109
2023-04-28T04:03:50.633Z,10.7748
2023-04-28T04:04:51.611Z,10.7597
2023-04-28T04:05:52.578Z,10.7524
2023-04-28T04:06:53.190Z,10.7450
2023-04-28T04:07:53.364Z,10.7660
2023-04-28T04:08:53.616Z,10.7257
2023-04-28T04:09:53.786Z,10.7313
2023-04-28T04:10:54.038Z,10.7154
2023-04-28T04:11:54.238Z,10.6928
2023-04-28T04:12:54.426Z,10.7122
2023-04-28T04:13:54.528Z,10.6993
2023-04-28T04:14:54.666Z,10.6968
2023-04-28T04:15:54.956Z,10.6974
2023-04-28T04:16:55.109Z,10.7192
2023-04-28T04:17:55.331Z,10.7346
2023-04-28T04:18:55.491Z,10.7716
2023-04-28T04:19:55.688Z,10.7589
2023-04-28T04:20:55.917Z,10.7459
2023-04-28T04:21:56.112Z,10.7271
2023-04-28T04:22:56.326Z,10.7093
2023-04-28T04:23:56.586Z,10.7136
2023-04-28T04:24:56.709Z,10.6948
2023-04-28T04:25:56.861Z,10.6703
2023-04-28T04:26:57.057Z,10.6630
2023-04-28T04:27:57.234Z,10.6825
2023-04-28T04:28:57.333Z,10.6851
2023-04-28T04:29:57.433Z,10.6921
2023-04-28T04:30:57.560Z,10.6802
2023-04-28T04:31:57.693Z,10.6899
2023-04-28T04:32:57.857Z,10.6896
2023-04-28T04:33:58.278Z,10.7199
2023-04-28T04:34:58.418Z,10.7430
2023-04-28T04:35:58.564Z,10.6999
2023-04-28T04:36:58.666Z,10.6948
2023-04-28T04:37:58.783Z,10.6898
2023-04-28T04:38:58.949Z,10.6789
2023-04-28T04:39:59.186Z,10.6664
2023-04-28T04:40:59.299Z,10.6666
2023-04-28T04:42:00.772Z,10.6791
2023-04-28T04:43:01.135Z,10.6356
2023-04-28T04:44:01.248Z,10.6548
2023-04-28T04:45:02.463Z,10.6794
2023-04-28T04:46:02.519Z,10.6874
2023-04-28T04:47:02.657Z,10.7291
2023-04-28T04:48:02.856Z,10.6856
2023-04-28T04:49:03.095Z,10.6876
2023-04-28T04:50:03.216Z,10.6855
2023-04-28T04:51:03.366Z,10.6841
2023-04-28T04:52:03.535Z,10.6849
2023-04-28T04:53:03.737Z,10.6885
2023-04-28T04:54:03.902Z,10.6948
2023-04-28T04:55:04.155Z,10.7235
2023-04-28T04:56:04.330Z,10.7106
2023-04-28T04:57:04.529Z,10.7060
2023-04-28T04:58:04.684Z,10.7141
2023-04-28T04:59:04.865Z,10.7352
2023-04-28T05:00:05.010Z,10.7092
2023-04-28T05:01:05.145Z,10.7101
2023-04-28T05:02:05.345Z,10.6653
2023-04-28T05:03:05.680Z,10.6602
2023-04-28T05:04:06.168Z,10.6571
2023-04-28T05:05:19.898Z,10.6913
2023-04-28T05:06:08.296Z,10.6875
2023-04-28T05:07:08.510Z,10.6924
2023-04-28T05:08:08.656Z,10.7184
2023-04-28T05:09:08.857Z,10.6838
2023-04-28T05:10:10.045Z,10.6823
2023-04-28T05:11:10.225Z,10.6719
2023-04-28T05:12:10.408Z,10.6801
2023-04-28T05:13:10.576Z,10.6986
2023-04-28T05:14:10.768Z,10.7130
2023-04-28T05:15:10.937Z,10.7053
2023-04-28T05:16:11.141Z,10.7137
2023-04-28T05:17:11.314Z,10.7379
2023-04-28T05:18:11.444Z,10.7194
2023-04-28T05:19:11.664Z,10.7092
2023-04-28T05:20:12.982Z,10.7410
2023-04-28T05:21:13.239Z,10.7234
2023-04-28T05:22:13.371Z,10.7310
2023-04-28T05:23:13.563Z,10.7528
2023-04-28T05:24:13.875Z,10.7327
2023-04-28T05:25:14.670Z,10.7134
2023-04-28T05:26:14.869Z,10.7130
2023-04-28T05:27:15.003Z,10.7118
2023-04-28T05:28:15.176Z,10.7339
2023-04-28T05:29:15.384Z,10.6837
2023-04-28T05:30:15.590Z,10.7011
2023-04-28T05:31:15.793Z,10.6855
2023-04-28T05:32:16.118Z,10.6766
2023-04-28T05:33:16.392Z,10.6473
2023-04-28T05:34:17.033Z,10.6600
2023-04-28T05:35:17.921Z,10.6812
2023-04-28T05:36:18.266Z,10.6841
2023-04-28T05:37:18.411Z,10.6769
2023-04-28T05:38:18.589Z,10.7029
2023-04-28T05:39:18.825Z,10.7504
2023-04-28T05:40:19.041Z,10.8260
2023-04-28T05:41:19.241Z,10.8558
2023-04-28T05:42:19.471Z,10.8408
2023-04-28T05:43:19.699Z,10.8450
2023-04-28T05:44:19.970Z,10.8585
2023-04-28T05:45:20.206Z,10.8426
2023-04-28T05:46:29.893Z,10.8495
2023-04-28T05:47:22.172Z,10.8048
2023-04-28T05:48:22.365Z,10.7999
2023-04-28T05:49:22.603Z,10.7968
2023-04-28T05:50:22.820Z,10.8545
2023-04-28T05:51:22.977Z,10.8615
2023-04-28T05:52:23.176Z,10.8043
2023-04-28T05:53:23.353Z,10.7668
2023-04-28T05:54:23.586Z,10.7642
2023-04-28T05:55:23.895Z,10.7627
2023-04-28T05:56:24.118Z,10.7036
2023-04-28T05:57:24.316Z,10.6654
2023-04-28T05:58:24.532Z,10.6710
2023-04-28T05:59:24.928Z,10.6250
2023-04-28T06:00:25.295Z,10.6409
2023-04-28T06:01:25.538Z,10.6477
2023-04-28T06:02:27.877Z,10.6714
2023-04-28T06:03:26.332Z,10.7270
2023-04-28T06:04:27.096Z,10.7258
2023-04-28T06:05:28.829Z,10.6858
2023-04-28T06:06:29.881Z,10.6680
2023-04-28T06:07:30.372Z,10.6729
2023-04-28T06:08:30.545Z,10.6925
2023-04-28T06:09:30.856Z,10.6870
2023-04-28T06:10:31.089Z,10.7322
2023-04-28T06:11:31.340Z,10.7352
2023-04-28T06:12:31.624Z,10.7091
2023-04-28T06:13:32.343Z,10.7319
2023-04-28T06:14:32.982Z,10.7465
2023-04-28T06:15:33.254Z,10.7807
2023-04-28T06:16:33.631Z,10.8079
2023-04-28T06:17:34.121Z,10.8881
2023-04-28T06:18:34.493Z,10.8913
2023-04-28T06:19:34.769Z,10.9242
2023-04-28T06:20:34.984Z,10.9423
2023-04-28T06:21:35.273Z,10.9386
2023-04-28T06:22:35.461Z,10.9563
2023-04-28T06:23:35.847Z,10.9708
2023-04-28T06:24:36.110Z,10.9983
2023-04-28T06:25:36.425Z,11.0297
2023-04-28T06:26:36.753Z,11.0550
2023-04-28T06:27:37.064Z,10.9580
2023-04-28T06:28:37.341Z,10.9163
2023-04-28T06:29:37.686Z,10.8978
2023-04-28T06:30:38.026Z,10.8967
2023-04-28T06:31:38.341Z,10.9023
2023-04-28T06:32:38.692Z,10.9037
2023-04-28T06:33:38.981Z,10.9084
2023-04-28T06:34:39.306Z,10.8885
2023-04-28T06:35:39.549Z,10.8731
2023-04-28T06:36:39.835Z,10.8704
2023-04-28T06:37:40.072Z,10.8669
2023-04-28T06:38:40.294Z,10.8405
2023-04-28T06:39:40.630Z,10.7969
2023-04-28T06:40:40.838Z,10.7687
2023-04-28T06:41:41.067Z,10.7784
2023-04-28T06:42:41.431Z,10.7721
2023-04-28T06:43:41.944Z,10.7626
2023-04-28T06:44:42.327Z,10.7788
2023-04-28T06:45:42.638Z,10.7596
2023-04-28T06:46:42.932Z,10.7958
2023-04-28T06:47:43.304Z,10.8164
2023-04-28T06:48:44.624Z,10.8123
2023-04-28T06:49:44.878Z,10.8082
2023-04-28T06:50:45.098Z,10.8316
2023-04-28T06:51:45.319Z,10.8282
2023-04-28T06:52:45.582Z,10.7988
2023-04-28T06:53:45.849Z,10.8063
2023-04-28T06:54:46.093Z,10.7927
2023-04-28T06:55:46.356Z,10.7864
2023-04-28T06:56:46.572Z,10.7871
2023-04-28T06:57:46.846Z,10.7984
2023-04-28T06:58:47.107Z,10.8160
2023-04-28T06:59:47.383Z,10.8099
2023-04-28T07:00:47.849Z,10.8396
2023-04-28T07:01:48.146Z,10.8596
2023-04-28T07:02:48.549Z,10.8596
2023-04-28T07:03:49.661Z,10.8527
2023-04-28T07:04:50.404Z,10.8749
2023-04-28T07:05:50.624Z,10.8575
2023-04-28T07:06:51.238Z,10.8511
2023-04-28T07:07:51.426Z,10.8937
2023-04-28T07:08:51.620Z,10.8871
2023-04-28T07:09:51.916Z,10.9204
2023-04-28T07:10:53.150Z,10.9132
2023-04-28T07:11:53.397Z,10.9440
2023-04-28T07:12:53.645Z,10.9353
2023-04-28T07:13:53.892Z,10.9154
2023-04-28T07:14:54.137Z,10.9098
2023-04-28T07:15:54.405Z,10.9154
2023-04-28T07:16:54.659Z,10.9102
2023-04-28T07:17:54.971Z,10.9062
2023-04-28T07:18:55.199Z,10.8848
2023-04-28T07:19:55.464Z,10.8911
2023-04-28T07:20:55.678Z,10.9449
2023-04-28T07:21:55.960Z,10.9658
2023-04-28T07:22:56.165Z,10.9451
2023-04-28T07:23:56.346Z,10.9298
2023-04-28T07:24:56.661Z,10.9162
2023-04-28T07:25:56.888Z,10.9317
2023-04-28T07:26:57.180Z,10.9606
2023-04-28T07:27:57.445Z,10.9560
2023-04-28T07:28:57.662Z,10.9920
2023-04-28T07:29:57.923Z,10.9895
2023-04-28T07:30:58.609Z,10.9940
2023-04-28T07:31:58.953Z,11.0031
2023-04-28T07:32:59.171Z,10.9939
2023-04-28T07:33:59.518Z,10.9795
2023-04-28T07:34:59.767Z,10.9569
2023-04-28T07:36:00.082Z,10.9149
2023-04-28T07:37:00.523Z,10.8795
2023-04-28T07:38:00.777Z,10.8529
2023-04-28T07:39:01.068Z,10.8637
2023-04-28T07:40:01.400Z,10.8278
2023-04-28T07:41:01.646Z,10.8197
2023-04-28T07:42:01.877Z,10.7997
2023-04-28T07:43:02.124Z,10.8142
2023-04-28T07:44:02.376Z,10.7929
2023-04-28T07:45:02.622Z,10.7739
2023-04-28T07:46:03.011Z,10.7796
2023-04-28T07:47:03.251Z,10.7631
2023-04-28T07:48:03.535Z,10.7480
2023-04-28T07:49:03.800Z,10.7238
2023-04-28T07:50:04.133Z,10.6957
2023-04-28T07:51:04.310Z,10.6838
2023-04-28T07:52:04.552Z,10.6775
2023-04-28T07:53:04.798Z,10.6754
2023-04-28T07:54:05.017Z,10.6771
2023-04-28T07:55:05.312Z,10.6618
2023-04-28T07:56:05.634Z,10.6466
2023-04-28T07:57:05.893Z,10.6440
2023-04-28T07:58:06.141Z,10.6376
2023-04-28T07:59:06.366Z,10.6180
2023-04-28T08:00:06.585Z,10.6327
2023-04-28T08:01:06.854Z,10.6477
2023-04-28T08:02:07.125Z,10.6523
2023-04-28T08:03:07.428Z,10.6291
2023-04-28T08:04:08.372Z,10.5971
2023-04-28T08:05:10.478Z,10.5861
2023-04-28T08:06:11.452Z,10.5877
2023-04-28T08:07:11.776Z,10.6113
2023-04-28T08:08:12.012Z,10.5848
2023-04-28T08:09:12.292Z,10.5791
2023-04-28T08:10:12.584Z,10.5747
2023-04-28T08:11:12.835Z,10.5611
2023-04-28T08:12:13.079Z,10.5545
2023-04-28T08:13:13.305Z,10.5283
2023-04-28T08:14:13.672Z,10.5215
2023-04-28T08:15:15.225Z,10.5279
2023-04-28T08:16:16.232Z,10.5613
2023-04-28T08:17:16.573Z,10.5650
2023-04-28T08:18:16.881Z,10.5500
2023-04-28T08:19:17.205Z,10.5626
2023-04-28T08:20:17.493Z,10.5477
2023-04-28T08:21:17.705Z,10.5375
2023-04-28T08:22:17.966Z,10.5453
2023-04-28T08:23:18.216Z,10.5463
2023-04-28T08:24:18.676Z,10.5949
2023-04-28T08:25:19.019Z,10.6084
2023-04-28T08:26:19.240Z,10.6135
2023-04-28T08:27:19.512Z,10.6141
2023-04-28T08:28:19.768Z,10.6452
2023-04-28T08:29:20.200Z,10.6673
2023-04-28T08:30:20.646Z,10.6602
2023-04-28T08:31:20.917Z,10.7098
2023-04-28T08:32:21.210Z,10.6882
2023-04-28T08:33:21.479Z,10.7254
2023-04-28T08:34:21.990Z,10.7595
2023-04-28T08:35:23.407Z,10.7645
2023-04-28T08:36:23.635Z,10.7966
2023-04-28T08:37:23.860Z,10.7668
2023-04-28T08:38:24.151Z,10.7921
2023-04-28T08:39:24.430Z,10.8120
2023-04-28T08:40:24.706Z,10.8390
2023-04-28T08:41:24.951Z,10.8522
2023-04-28T08:42:25.245Z,10.9023
2023-04-28T08:43:25.603Z,10.9059
2023-04-28T08:44:26.048Z,10.9608
2023-04-28T08:45:28.514Z,11.0176
2023-04-28T08:46:28.886Z,11.0414
2023-04-28T08:47:29.273Z,11.0778
2023-04-28T08:48:29.603Z,11.1024
2023-04-28T08:49:29.820Z,11.1582
2023-04-28T08:50:30.118Z,11.1819
2023-04-28T08:51:30.382Z,11.2064
2023-04-28T08:52:30.639Z,11.2228
2023-04-28T08:53:30.899Z,11.2227
2023-04-28T08:54:31.347Z,11.2210
2023-04-28T08:55:32.331Z,11.2185
2023-04-28T08:56:32.542Z,11.2328
2023-04-28T08:57:32.819Z,11.2562
2023-04-28T08:58:33.122Z,11.2616
2023-04-28T08:59:33.416Z,11.2419
2023-04-28T09:00:33.694Z,11.2548
2023-04-28T09:01:34.075Z,11.2226
2023-04-28T09:02:34.530Z,11.2588
2023-04-28T09:03:35.314Z,11.2628
2023-04-28T09:04:36.092Z,11.2577
2023-04-28T09:05:37.177Z,11.1741
2023-04-28T09:06:37.902Z,11.1654
2023-04-28T09:07:38.425Z,11.1249
2023-04-28T09:08:38.758Z,11.1149
2023-04-28T09:09:39.440Z,11.1142
2023-04-28T09:10:39.836Z,11.1359
2023-04-28T09:11:40.209Z,11.1216
2023-04-28T09:12:40.535Z,11.1160
2023-04-28T09:13:40.915Z,11.1352
2023-04-28T09:14:41.163Z,11.1752
2023-04-28T09:15:41.545Z,11.0882
2023-04-28T09:16:41.992Z,11.0324
2023-04-28T09:17:42.509Z,11.0662
2023-04-28T09:18:42.902Z,11.0507
2023-04-28T09:19:44.232Z,11.0437
2023-04-28T09:20:44.647Z,11.0280
2023-04-28T09:21:45.038Z,10.9952
2023-04-28T09:22:45.441Z,10.9879
2023-04-28T09:23:45.808Z,10.9996
2023-04-28T09:24:46.104Z,10.9983
2023-04-28T09:25:46.461Z,11.0331
2023-04-28T09:26:46.767Z,11.0694
2023-04-28T09:27:48.305Z,11.1074
2023-04-28T09:28:48.758Z,11.1266
2023-04-28T09:29:49.069Z,11.1617
2023-04-28T09:30:49.360Z,11.1373
2023-04-28T09:31:49.718Z,11.1885
2023-04-28T09:32:50.106Z,11.1921
2023-04-28T09:33:50.386Z,11.1720
2023-04-28T09:34:50.714Z,11.1671
2023-04-28T09:35:51.015Z,11.1803
2023-04-28T09:36:51.312Z,11.1495
2023-04-28T09:37:51.615Z,11.1259
2023-04-28T09:38:51.945Z,11.0957
2023-04-28T09:39:52.270Z,11.0674
2023-04-28T09:40:52.549Z,11.0553
2023-04-28T09:41:52.853Z,11.0343
2023-04-28T09:42:53.160Z,11.0162
2023-04-28T09:43:53.463Z,10.9869
2023-04-28T09:44:53.820Z,10.9541
2023-04-28T09:45:54.243Z,10.9700
2023-04-28T09:46:54.551Z,10.9825
2023-04-28T09:47:54.883Z,11.0025
2023-04-28T09:48:55.294Z,11.0021
2023-04-28T09:49:55.608Z,10.9845
2023-04-28T09:50:55.931Z,10.9811
2023-04-28T09:51:56.268Z,10.9890
2023-04-28T09:52:56.586Z,10.9945
2023-04-28T09:53:56.893Z,11.0018
2023-04-28T09:54:57.246Z,10.9977
2023-04-28T09:55:57.570Z,10.9704
2023-04-28T09:56:57.915Z,10.9429
2023-04-28T09:57:58.220Z,10.9601
2023-04-28T09:58:58.569Z,10.9909
2023-04-28T09:59:58.949Z,10.9838
2023-04-28T10:00:59.322Z,11.0133
2023-04-28T10:02:00.916Z,11.0644
2023-04-28T10:03:01.599Z,11.1028
2023-04-28T10:04:02.655Z,11.1467
2023-04-28T10:05:03.426Z,11.0903
2023-04-28T10:06:04.420Z,11.0571
2023-04-28T10:07:04.774Z,11.0853
2023-04-28T10:08:05.086Z,11.1088
2023-04-28T10:09:05.400Z,11.0916
2023-04-28T10:10:05.771Z,11.0712
2023-04-28T10:11:06.126Z,11.0535
2023-04-28T10:12:06.570Z,11.0799
2023-04-28T10:13:06.888Z,11.0962
2023-04-28T10:14:07.266Z,11.0828
2023-04-28T10:15:07.633Z,11.0764
2023-04-28T10:16:08.067Z,11.1095
2023-04-28T10:17:08.536Z,11.1738
2023-04-28T10:18:09.093Z,11.1178
2023-04-28T10:19:09.447Z,11.1636
2023-04-28T10:20:09.777Z,11.2278
2023-04-28T10:21:10.106Z,11.2802
2023-04-28T10:22:10.473Z,11.2742
2023-04-28T10:23:10.786Z,11.3068
2023-04-28T10:24:11.171Z,11.3792
2023-04-28T10:25:11.565Z,11.4311
2023-04-28T10:26:11.926Z,11.5292
2023-04-28T10:27:12.241Z,11.5385
2023-04-28T10:28:12.594Z,11.5302
2023-04-28T10:29:12.917Z,11.5312
2023-04-28T10:30:26.232Z,11.5578
2023-04-28T10:31:15.117Z,11.5407
2023-04-28T10:32:15.472Z,11.5313
2023-04-28T10:33:15.827Z,11.5347
2023-04-28T10:34:16.167Z,11.5999
2023-04-28T10:35:16.473Z,11.6240
2023-04-28T10:36:19.362Z,11.6747
2023-04-28T10:37:18.603Z,11.7015
2023-04-28T10:38:18.926Z,11.6416
2023-04-28T10:39:19.267Z,11.6286
2023-04-28T10:40:19.614Z,11.5878
2023-04-28T10:41:19.939Z,11.5716
2023-04-28T10:42:20.266Z,11.5355
2023-04-28T10:43:20.658Z,11.5103
2023-04-28T10:44:21.070Z,11.5541
2023-04-28T10:45:21.398Z,11.6345
2023-04-28T10:46:21.837Z,11.6864
2023-04-28T10:47:22.377Z,11.7483
2023-04-28T10:48:22.834Z,11.7706
2023-04-28T10:49:23.182Z,11.7546
2023-04-28T10:50:32.445Z,11.8105
2023-04-28T10:51:25.414Z,11.8350
2023-04-28T10:52:25.806Z,11.8268
2023-04-28T10:53:26.379Z,11.8505
2023-04-28T10:54:27.454Z,11.9571
2023-04-28T10:55:27.879Z,12.0119
2023-04-28T10:56:28.291Z,11.9962
2023-04-28T10:57:28.645Z,11.9709
2023-04-28T10:58:29.076Z,11.9709
2023-04-28T10:59:29.405Z,11.9958
2023-04-28T11:00:29.815Z,12.0097
2023-04-28T11:01:30.250Z,12.1065
2023-04-28T11:02:31.182Z,12.2095
2023-04-28T11:03:32.376Z,12.2602
2023-04-28T11:04:34.202Z,12.3756
2023-04-28T11:05:35.247Z,12.3943
2023-04-28T11:06:35.656Z,12.3740
2023-04-28T11:07:36.123Z,12.4002
2023-04-28T11:08:36.448Z,12.4592
2023-04-28T11:09:36.811Z,12.5285
2023-04-28T11:10:37.127Z,12.5394
2023-04-28T11:11:37.510Z,12.5562
2023-04-28T11:12:37.857Z,12.5419
2023-04-28T11:13:39.593Z,12.5795
2023-04-28T11:14:40.934Z,12.5463
2023-04-28T11:15:41.557Z,12.5155
2023-04-28T11:16:41.945Z,12.4103
2023-04-28T11:17:42.482Z,12.4276
2023-04-28T11:18:42.810Z,12.4685
2023-04-28T11:19:43.123Z,12.5383
2023-04-28T11:20:43.472Z,12.5822
2023-04-28T11:21:43.820Z,12.7120
2023-04-28T11:22:44.223Z,12.7395
2023-04-28T11:23:44.583Z,12.8192
2023-04-28T11:24:44.926Z,12.9197
2023-04-28T11:25:45.294Z,13.0755
2023-04-28T11:26:45.699Z,13.1743
2023-04-28T11:27:46.035Z,13.1718
2023-04-28T11:28:46.385Z,13.1687
2023-04-28T11:29:46.710Z,13.1993
2023-04-28T11:30:47.079Z,13.1514
2023-04-28T11:31:47.429Z,13.0921
2023-04-28T11:32:47.815Z,13.1216
2023-04-28T11:33:48.223Z,12.9963
2023-04-28T11:34:48.553Z,12.9144
2023-04-28T11:35:48.934Z,12.8802
2023-04-28T11:36:49.373Z,12.8567
2023-04-28T11:37:49.702Z,12.8303
2023-04-28T11:38:50.070Z,12.8982
2023-04-28T11:39:50.411Z,12.9164
2023-04-28T11:40:50.767Z,12.9219
2023-04-28T11:41:51.192Z,12.9423
2023-04-28T11:42:51.513Z,12.9429
2023-04-28T11:43:51.874Z,12.9976
2023-04-28T11:44:52.233Z,13.1307
2023-04-28T11:45:52.643Z,13.2749
2023-04-28T11:46:53.039Z,13.3632
2023-04-28T11:47:53.408Z,13.4428
2023-04-28T11:48:53.822Z,13.5160
2023-04-28T11:49:54.148Z,13.5453
2023-04-28T11:50:54.431Z,13.5941
2023-04-28T11:51:54.754Z,13.6375
2023-04-28T11:52:55.080Z,13.7096
2023-04-28T11:53:55.358Z,13.7852
2023-04-28T11:54:55.722Z,13.8354
2023-04-28T11:55:56.191Z,13.8430
2023-04-28T11:56:56.587Z,13.9129
2023-04-28T11:57:56.886Z,13.9826
2023-04-28T11:58:57.202Z,14.0642
2023-04-28T11:59:57.536Z,14.0681
2023-04-28T12:00:57.826Z,14.0554
2023-04-28T12:01:58.132Z,14.0086
2023-04-28T12:02:58.597Z,13.9760
2023-04-28T12:03:59.237Z,13.9642
2023-04-28T12:04:59.745Z,13.9196
2023-04-28T12:06:00.153Z,13.8813
2023-04-28T12:07:00.605Z,13.8581
2023-04-28T12:08:01.929Z,13.8241
2023-04-28T12:09:02.304Z,13.8485
2023-04-28T12:10:02.645Z,13.8529